Hlavní strana
METAR-TAF:

METAR-TAF

Letiště :

Capital City Airport

Frankfort, Kentucky, Spojené státy americké

zeměpisná šířka: 38-11-05N, zeměpisná délka: 084-54-12W, výška: 245 m

Aktuální stav počasí

Zpráva byla vytvořena před 13 minutami, v 01:53 UTC
Západní vítr 4 kt
Teplota 10°C
Vlhkost vzduchu 82%
Tlak 1011 hPa
Viditelnost: 16.1 km
Zataženo ve výšce 1800 ft

METAR: KFFT 260153Z AUTO 28004KT 10SM OVC018 10/07 A2985 RMK AO2 SLP108 T01000072

Čas: 21:06 (02:06 UTC)


TAF: chybějící

Stav a předpovědi počasí z více než 4 000 letišť (zprávy METAR a TAF).

Červené a žluté tečky na mapě představují dostupné meteorologické stanice.

Když kurzor umístíte na tečku, zobrazí se název stanice.

Pak kliknutím zobrazíte stav a předpověď počasí.

Chcete-li změnit mapu, kliknutím na zelené tlačítko se znaménkem +mapu přiblížíte, kliknutím na zelené tlačítko se znaménkem – mapu oddálíte a kliknutím na zelené šipky přejdete na sousední mapy.


METAR-TAF: